Terminal Aerodrome Forecast
Issued by NWS

Home | Current Version | Previous Version | Text Only | Print | Product List | Glossary On
Versions: 1 2 3 4 5 6 7 8 9 10 11 12 13 14 15 16 17 18 19 20 21 22 23 24 25 26
000
FTUS43 KDVN 292000 AAA
TAFBRL
TAF AMD
KBRL 292046Z 2921/3018 25005KT P6SM SCT060
     FM300400 34007KT P6SM SCT020 SCT080
     FM300800 02011KT 4SM BR SCT008 BKN020
     FM301500 05010KT P6SM BKN025=

USA.gov is the U.S. government's official web portal to all federal, state and local government web resources and services.